Time;durP1;ratioP1;P1;durP2;ratioP2;P2;SDS_P1;SDS_P2;PMS_P1;PMS_P2;Temp;Humidity;BMP_temperature;BMP_pressure;BME280_temperature;BME280_humidity;BME280_pressure;Samples;Min_cycle;Max_cycle;Signal;HPM_P1;HPM_P2
2022/11/18 00:02:21;;;;;;;11.65;7.70;;;6.90;99.90;;;;;;4994799;28;20056;-85
2022/11/18 00:04:46;;;;;;;14.00;7.72;;;6.90;99.90;;;;;;4983372;28;20537;-86
2022/11/18 00:07:12;;;;;;;10.70;7.50;;;6.90;99.90;;;;;;5013554;28;20446;-87
2022/11/18 00:09:38;;;;;;;11.45;6.60;;;6.80;99.90;;;;;;5008529;28;20037;-87
2022/11/18 00:15:09;;;;;;;10.27;6.93;;;6.90;99.90;;;;;;5008878;28;20066;-87
2022/11/18 00:17:35;;;;;;;10.95;7.53;;;6.90;99.90;;;;;;4976861;28;20084;-86
2022/11/18 00:20:01;;;;;;;12.52;7.25;;;6.90;99.90;;;;;;4982997;28;20045;-86
2022/11/18 00:22:26;;;;;;;10.63;7.30;;;6.90;99.90;;;;;;5019515;28;20068;-86
2022/11/18 00:24:52;;;;;;;11.32;6.82;;;7.00;99.90;;;;;;5015232;28;20033;-86
2022/11/18 00:27:18;;;;;;;10.90;6.43;;;7.00;99.90;;;;;;5008167;28;20057;-86
2022/11/18 00:29:43;;;;;;;9.98;6.55;;;7.00;99.90;;;;;;5032213;28;20029;-86
2022/11/18 00:32:09;;;;;;;10.57;7.22;;;7.00;99.90;;;;;;4981185;28;20120;-86
2022/11/18 00:34:35;;;;;;;12.45;7.38;;;7.00;99.90;;;;;;5011987;28;20076;-86
2022/11/18 00:37:01;;;;;;;10.48;6.90;;;7.00;99.90;;;;;;5009039;28;20489;-86
2022/11/18 00:39:26;;;;;;;13.57;7.60;;;6.90;99.90;;;;;;4985326;28;20045;-86
2022/11/18 00:44:36;;;;;;;11.38;7.05;;;7.00;99.90;;;;;;5036244;28;20037;-86
2022/11/18 00:47:02;;;;;;;12.70;7.70;;;6.90;99.90;;;;;;5026293;28;20034;-86
2022/11/18 00:49:28;;;;;;;10.70;6.70;;;7.00;99.90;;;;;;5018962;28;20033;-86
2022/11/18 00:51:54;;;;;;;15.07;8.00;;;7.00;99.90;;;;;;4996914;28;20021;-86
2022/11/18 00:54:20;;;;;;;11.75;6.97;;;7.00;99.90;;;;;;5006069;28;20033;-86
2022/11/18 00:56:46;;;;;;;10.65;7.18;;;6.90;99.90;;;;;;5006876;28;20033;-86
2022/11/18 00:59:12;;;;;;;11.43;6.60;;;7.00;99.90;;;;;;5014890;28;20048;-86
2022/11/18 01:01:38;;;;;;;13.98;7.38;;;7.00;99.90;;;;;;5016687;28;20052;-86
2022/11/18 01:04:03;;;;;;;13.75;7.05;;;7.00;99.90;;;;;;4997799;28;20040;-86
2022/11/18 01:06:29;;;;;;;12.13;6.88;;;7.00;99.90;;;;;;5005202;28;20043;-87
2022/11/18 01:08:57;;;;;;;12.80;7.50;;;7.00;99.90;;;;;;5014122;28;20500;-86
2022/11/18 01:14:07;;;;;;;9.50;5.70;;;7.00;99.90;;;;;;5016743;28;20485;-86
2022/11/18 01:16:33;;;;;;;12.82;6.72;;;7.00;99.90;;;;;;5019102;28;20033;-87
2022/11/18 01:18:59;;;;;;;17.83;4.93;;;7.00;99.90;;;;;;4997686;28;20124;-86
2022/11/18 01:21:25;;;;;;;6.63;4.78;;;7.00;99.90;;;;;;5007349;28;20048;-86
2022/11/18 01:23:52;;;;;;;8.32;5.80;;;7.00;99.90;;;;;;4979196;28;20044;-86
2022/11/18 01:26:18;;;;;;;7.68;5.22;;;7.00;99.90;;;;;;5026915;28;20107;-86
2022/11/18 01:28:44;;;;;;;8.32;5.82;;;7.00;99.90;;;;;;5013700;28;20616;-86
2022/11/18 01:31:15;;;;;;;9.90;5.30;;;7.10;99.90;;;;;;5018176;28;20026;-86
2022/11/18 01:33:42;;;;;;;7.63;4.82;;;7.10;99.90;;;;;;5014015;28;20099;-86
2022/11/18 01:36:22;;;;;;;7.32;5.15;;;7.10;99.90;;;;;;5031847;28;20032;-86
2022/11/18 01:38:49;;;;;;;8.75;4.80;;;7.10;99.90;;;;;;5031742;28;20036;-86
2022/11/18 01:41:15;;;;;;;8.07;4.70;;;7.00;99.90;;;;;;5032441;28;20033;-87
2022/11/18 01:43:55;;;;;;;6.70;4.55;;;7.00;99.90;;;;;;5015807;28;20040;-86
2022/11/18 01:46:23;;;;;;;8.43;4.55;;;7.00;99.90;;;;;;5016233;28;20028;-86
2022/11/18 01:49:07;;;;;;;6.20;4.28;;;7.00;99.90;;;;;;5033556;28;20485;-88
2022/11/18 01:51:46;;;;;;;7.03;4.70;;;7.00;99.90;;;;;;5028722;28;20667;-86
2022/11/18 01:54:17;;;;;;;9.77;5.25;;;7.00;99.90;;;;;;4996070;28;20083;-86
2022/11/18 01:56:47;;;;;;;10.23;5.28;;;7.00;99.90;;;;;;5006451;28;20037;-87
2022/11/18 01:59:24;;;;;;;7.38;5.00;;;7.00;99.90;;;;;;5029653;28;20029;-86
2022/11/18 02:01:50;;;;;;;7.18;5.03;;;7.00;99.90;;;;;;5021168;28;20485;-87
2022/11/18 02:04:16;;;;;;;8.27;5.22;;;7.00;99.90;;;;;;5015366;28;20055;-86
2022/11/18 02:06:45;;;;;;;7.70;5.28;;;7.00;99.90;;;;;;5024638;28;20108;-87
2022/11/18 02:09:15;;;;;;;7.55;5.38;;;7.00;99.90;;;;;;5032135;28;20131;-86
2022/11/18 02:11:52;;;;;;;10.20;5.70;;;7.00;99.90;;;;;;5028685;28;20045;-86
2022/11/18 02:14:28;;;;;;;8.77;5.45;;;7.10;99.90;;;;;;5006362;28;20033;-86
2022/11/18 02:17:28;;;;;;;9.27;5.63;;;7.00;99.90;;;;;;5013148;28;20033;-87
2022/11/18 02:20:29;;;;;;;7.43;5.05;;;7.00;99.90;;;;;;5044384;28;20183;-86
2022/11/18 02:23:26;;;;;;;5.78;4.53;;;7.00;99.90;;;;;;5012423;28;20094;-86
2022/11/18 02:26:01;;;;;;;8.00;4.20;;;7.00;99.90;;;;;;5018225;28;20047;-86
2022/11/18 02:28:46;;;;;;;7.20;4.17;;;7.00;99.90;;;;;;5032660;28;20035;-86
2022/11/18 02:31:34;;;;;;;4.28;3.50;;;7.00;99.90;;;;;;5031588;28;20291;-86
2022/11/18 02:34:25;;;;;;;5.82;4.07;;;7.00;99.90;;;;;;5015173;28;20032;-86
2022/11/18 02:37:02;;;;;;;16.38;7.93;;;7.00;99.90;;;;;;5028449;28;20036;-86
2022/11/18 02:39:42;;;;;;;23.10;9.35;;;7.00;99.90;;;;;;5021618;28;20038;-86
2022/11/18 02:42:11;;;;;;;20.30;7.72;;;7.00;99.90;;;;;;5031496;28;20036;-86
2022/11/18 02:44:40;;;;;;;15.70;7.70;;;7.00;99.90;;;;;;5015473;28;20047;-86
2022/11/18 02:47:10;;;;;;;12.48;7.38;;;7.00;99.90;;;;;;5012075;28;20042;-86
2022/11/18 02:49:54;;;;;;;12.75;6.97;;;7.00;99.90;;;;;;5012255;28;20036;-87
2022/11/18 02:52:22;;;;;;;16.70;7.25;;;7.00;99.90;;;;;;5024127;28;20052;-86
2022/11/18 02:54:50;;;;;;;13.65;6.95;;;7.00;99.90;;;;;;5028351;28;20025;-85
2022/11/18 02:57:18;;;;;;;10.88;5.57;;;7.00;99.90;;;;;;5015606;28;20037;-86
2022/11/18 02:59:44;;;;;;;6.15;4.18;;;7.00;99.90;;;;;;5015853;28;20033;-86
2022/11/18 03:02:17;;;;;;;18.80;4.28;;;7.00;99.90;;;;;;4998367;28;20769;-86
2022/11/18 03:04:48;;;;;;;7.50;3.47;;;7.00;99.90;;;;;;5012150;28;20458;-86
2022/11/18 03:07:18;;;;;;;5.85;4.25;;;7.00;99.90;;;;;;5027644;28;20422;-86
2022/11/18 03:09:49;;;;;;;7.47;5.32;;;7.00;99.90;;;;;;5012139;28;20035;-86
2022/11/18 03:12:37;;;;;;;6.85;3.92;;;7.00;99.90;;;;;;5018726;28;20041;-86
2022/11/18 03:15:34;;;;;;;7.70;4.95;;;7.00;99.90;;;;;;5015689;28;20052;-85
2022/11/18 03:18:13;;;;;;;10.63;5.60;;;7.00;99.90;;;;;;5038173;28;20032;-86
2022/11/18 03:20:48;;;;;;;8.98;4.63;;;7.00;99.90;;;;;;5015318;28;20536;-87
2022/11/18 03:23:23;;;;;;;7.30;4.75;;;7.00;99.90;;;;;;5030047;28;20037;-85
2022/11/18 03:25:51;;;;;;;10.95;5.97;;;7.00;99.90;;;;;;5034897;28;20028;-87
2022/11/18 03:28:40;;;;;;;8.15;5.53;;;7.00;99.90;;;;;;5034636;28;20029;-86
2022/11/18 03:31:24;;;;;;;9.43;5.90;;;7.00;99.90;;;;;;5034410;28;20061;-86
2022/11/18 03:34:27;;;;;;;8.40;5.65;;;7.00;99.90;;;;;;5034573;28;20036;-86
2022/11/18 03:36:57;;;;;;;9.95;6.65;;;7.00;99.90;;;;;;5021702;28;20123;-86
2022/11/18 03:39:26;;;;;;;11.88;6.40;;;7.00;99.90;;;;;;5037360;28;20043;-86
2022/11/18 03:41:59;;;;;;;10.63;6.57;;;7.10;99.90;;;;;;4983634;28;20037;-86
2022/11/18 03:44:31;;;;;;;10.45;6.25;;;7.10;99.90;;;;;;5035410;28;20059;-86
2022/11/18 03:47:11;;;;;;;9.70;6.57;;;7.10;99.90;;;;;;5026144;28;20072;-85
2022/11/18 03:49:50;;;;;;;10.63;6.22;;;7.10;99.90;;;;;;5020620;28;20033;-86
2022/11/18 03:52:24;;;;;;;8.18;5.28;;;7.00;99.90;;;;;;5039951;28;20706;-86
2022/11/18 03:54:53;;;;;;;5.22;4.15;;;7.00;99.90;;;;;;5023949;28;20036;-86
2022/11/18 03:57:24;;;;;;;8.23;4.20;;;7.00;99.90;;;;;;5002976;28;20045;-86
2022/11/18 04:00:02;;;;;;;13.23;4.40;;;7.00;99.90;;;;;;5017767;28;20055;-86
2022/11/18 04:02:30;;;;;;;11.00;5.75;;;7.00;99.90;;;;;;5029916;28;20041;-86
2022/11/18 04:04:59;;;;;;;9.95;6.03;;;7.00;99.90;;;;;;5014184;28;20034;-86
2022/11/18 04:07:36;;;;;;;12.77;6.50;;;6.90;99.90;;;;;;5032458;28;20041;-85
2022/11/18 04:10:12;;;;;;;9.13;5.80;;;6.90;99.90;;;;;;5017329;28;20661;-85
2022/11/18 04:12:44;;;;;;;8.40;5.93;;;6.90;99.90;;;;;;5033612;28;20082;-85
2022/11/18 04:15:11;;;;;;;7.60;5.10;;;6.90;99.90;;;;;;5017679;28;20039;-86
2022/11/18 04:17:40;;;;;;;7.28;4.43;;;6.90;99.90;;;;;;5016960;28;20044;-86
2022/11/18 04:20:08;;;;;;;7.60;4.43;;;6.90;99.90;;;;;;5031171;28;20040;-86
2022/11/18 04:22:34;;;;;;;6.10;4.40;;;6.90;99.90;;;;;;5025374;28;20116;-89
2022/11/18 04:24:59;;;;;;;5.50;4.05;;;6.90;99.90;;;;;;5014759;28;20179;-86
2022/11/18 04:27:25;;;;;;;5.50;3.83;;;6.90;99.90;;;;;;5047594;28;20143;-86
2022/11/18 04:29:51;;;;;;;9.02;5.28;;;6.90;99.90;;;;;;5001001;28;20103;-86
2022/11/18 04:32:17;;;;;;;6.43;4.95;;;6.90;99.90;;;;;;5000108;28;20705;-85
2022/11/18 04:34:42;;;;;;;7.50;5.28;;;6.90;99.90;;;;;;5017126;28;20017;-86
2022/11/18 04:37:08;;;;;;;8.68;5.30;;;7.00;99.90;;;;;;5013886;28;20409;-86
2022/11/18 04:39:34;;;;;;;5.88;4.13;;;7.00;99.90;;;;;;5014055;28;20037;-86
2022/11/18 04:42:00;;;;;;;7.43;4.18;;;7.00;99.90;;;;;;5008540;28;20040;-86
2022/11/18 04:44:28;;;;;;;7.75;4.80;;;7.00;99.90;;;;;;4997377;28;20037;-87
2022/11/18 04:46:56;;;;;;;8.63;5.22;;;7.00;99.90;;;;;;5011623;28;20033;-86
2022/11/18 04:49:22;;;;;;;8.25;5.22;;;7.00;99.90;;;;;;5033362;28;20084;-87
2022/11/18 04:51:49;;;;;;;10.25;5.22;;;7.00;99.90;;;;;;5014388;28;20025;-86
2022/11/18 04:54:16;;;;;;;8.68;4.97;;;6.90;99.90;;;;;;4996986;28;20029;-86
2022/11/18 04:56:43;;;;;;;8.23;5.00;;;6.90;99.90;;;;;;5019400;28;20029;-86
2022/11/18 04:59:09;;;;;;;5.35;4.40;;;6.90;99.90;;;;;;5013966;28;20065;-87
2022/11/18 05:01:35;;;;;;;5.78;4.20;;;6.90;99.90;;;;;;5013658;28;20033;-85
2022/11/18 05:04:02;;;;;;;9.68;4.40;;;6.90;99.90;;;;;;4980624;28;20057;-86
2022/11/18 05:06:29;;;;;;;8.27;4.45;;;6.90;99.90;;;;;;5024005;28;20037;-85
2022/11/18 05:08:57;;;;;;;6.70;4.50;;;6.90;99.90;;;;;;5042934;28;20049;-86
2022/11/18 05:14:08;;;;;;;6.93;5.00;;;6.90;99.90;;;;;;5045240;28;20025;-86
2022/11/18 05:16:33;;;;;;;8.00;5.18;;;6.90;99.90;;;;;;5012935;28;20512;-86
2022/11/18 05:19:01;;;;;;;6.63;5.20;;;6.90;99.90;;;;;;5008081;28;20036;-86
2022/11/18 05:21:26;;;;;;;9.15;5.57;;;6.90;99.90;;;;;;5033118;28;20342;-86
2022/11/18 05:23:52;;;;;;;9.95;4.95;;;6.90;99.90;;;;;;5000390;28;20394;-86
2022/11/18 05:26:18;;;;;;;8.05;5.43;;;6.90;99.90;;;;;;5013351;28;20048;-86
2022/11/18 05:28:44;;;;;;;10.10;5.05;;;6.90;99.90;;;;;;4996623;28;20553;-86
2022/11/18 05:31:13;;;;;;;6.35;4.60;;;6.90;99.90;;;;;;5012770;28;20084;-86
2022/11/18 05:33:40;;;;;;;7.57;4.65;;;6.90;99.90;;;;;;4983876;28;20032;-86
2022/11/18 05:36:08;;;;;;;7.32;4.72;;;6.90;99.90;;;;;;5012455;28;20092;-86
2022/11/18 05:38:35;;;;;;;7.30;4.75;;;6.90;99.90;;;;;;5027159;28;20128;-86
2022/11/18 05:41:01;;;;;;;7.03;4.60;;;7.00;99.90;;;;;;5018557;28;20087;-85
2022/11/18 05:43:27;;;;;;;6.32;4.65;;;7.00;99.90;;;;;;5013097;28;20647;-86
2022/11/18 05:45:52;;;;;;;9.63;5.20;;;7.00;99.90;;;;;;5015659;28;20041;-86
2022/11/18 05:48:19;;;;;;;7.93;5.47;;;7.00;99.90;;;;;;5015892;28;20037;-87
2022/11/18 05:50:47;;;;;;;7.60;5.07;;;7.00;99.90;;;;;;5015959;28;20052;-86
2022/11/18 05:53:14;;;;;;;7.75;5.38;;;7.00;99.90;;;;;;5020935;28;20381;-86
2022/11/18 05:55:47;;;;;;;11.18;5.80;;;7.00;99.90;;;;;;5025944;28;20030;-86
2022/11/18 05:58:13;;;;;;;9.68;6.13;;;7.00;99.90;;;;;;5029296;28;20491;-86
2022/11/18 06:00:39;;;;;;;13.20;7.35;;;7.00;99.90;;;;;;5007680;28;20075;-86
2022/11/18 06:03:17;;;;;;;12.65;6.85;;;7.00;99.90;;;;;;5031937;28;20063;-86
2022/11/18 06:05:44;;;;;;;12.35;6.60;;;7.00;99.90;;;;;;5011978;28;20021;-86
2022/11/18 06:08:12;;;;;;;14.38;6.93;;;7.00;99.90;;;;;;4996197;28;20036;-86
2022/11/18 06:10:42;;;;;;;10.48;6.43;;;7.00;99.90;;;;;;5025789;28;20416;-86
2022/11/18 06:13:10;;;;;;;9.85;6.20;;;7.00;99.90;;;;;;5015187;28;20129;-87
2022/11/18 06:15:41;;;;;;;9.63;5.93;;;7.00;99.90;;;;;;5044624;28;20112;-86
2022/11/18 06:18:22;;;;;;;15.27;7.13;;;7.00;99.90;;;;;;4991751;28;20116;-86
2022/11/18 06:20:51;;;;;;;15.88;6.82;;;7.00;99.90;;;;;;5015206;28;20021;-86
2022/11/18 06:23:17;;;;;;;11.02;6.45;;;7.10;99.90;;;;;;4983253;28;20037;-86
2022/11/18 06:25:43;;;;;;;12.77;6.93;;;7.10;99.90;;;;;;4995780;28;20505;-86
2022/11/18 06:28:10;;;;;;;14.48;7.00;;;7.00;99.90;;;;;;5022990;28;20046;-86
2022/11/18 06:30:37;;;;;;;12.07;6.78;;;7.10;99.90;;;;;;5015754;28;20108;-86
2022/11/18 06:33:03;;;;;;;16.65;9.10;;;7.10;99.90;;;;;;5013637;28;20017;-86
2022/11/18 06:35:29;;;;;;;16.55;9.05;;;7.10;99.90;;;;;;5014642;28;20433;-86
2022/11/18 06:37:54;;;;;;;16.92;9.30;;;7.10;99.90;;;;;;5015617;28;20113;-85
2022/11/18 06:40:20;;;;;;;16.90;8.55;;;7.10;99.90;;;;;;4997317;28;20033;-86
2022/11/18 06:45:30;;;;;;;18.02;9.35;;;7.10;99.90;;;;;;4998468;28;20060;-86
2022/11/18 06:47:57;;;;;;;14.82;8.55;;;7.10;99.90;;;;;;4998891;28;20025;-85
2022/11/18 06:50:23;;;;;;;35.17;8.07;;;7.10;99.90;;;;;;5019346;28;20036;-86
2022/11/18 06:52:49;;;;;;;8.52;5.20;;;7.10;99.90;;;;;;4976432;28;20026;-86
2022/11/18 06:55:15;;;;;;;5.13;4.20;;;7.10;99.90;;;;;;5001372;28;20150;-86
2022/11/18 06:57:41;;;;;;;5.65;2.88;;;7.10;99.90;;;;;;4979971;28;20033;-86
2022/11/18 07:00:07;;;;;;;5.50;3.15;;;7.10;99.90;;;;;;4963042;28;20421;-86
2022/11/18 07:02:35;;;;;;;4.88;3.42;;;7.10;99.90;;;;;;4991446;28;20038;-86
2022/11/18 07:05:01;;;;;;;8.60;4.10;;;7.10;99.90;;;;;;5000244;28;20077;-86
2022/11/18 07:07:28;;;;;;;5.45;3.80;;;7.10;99.90;;;;;;5009454;28;20091;-85
2022/11/18 07:09:54;;;;;;;5.50;3.75;;;7.10;99.90;;;;;;4979327;28;20146;-86
2022/11/18 07:12:20;;;;;;;5.60;3.38;;;7.10;99.90;;;;;;5012806;28;20056;-86
2022/11/18 07:14:46;;;;;;;4.15;3.35;;;7.20;99.90;;;;;;5014885;28;20466;-86
2022/11/18 07:17:11;;;;;;;10.57;3.72;;;7.10;99.90;;;;;;5014596;28;20029;-86
2022/11/18 07:19:38;;;;;;;20.75;4.07;;;7.20;99.90;;;;;;4998774;28;20701;-88
2022/11/18 07:22:04;;;;;;;5.53;3.63;;;7.20;99.90;;;;;;4999974;28;20038;-86
2022/11/18 07:24:30;;;;;;;6.75;3.88;;;7.10;99.90;;;;;;5005205;28;20357;-86
2022/11/18 07:26:56;;;;;;;7.90;3.95;;;7.10;99.90;;;;;;5042847;28;20036;-86
2022/11/18 07:29:22;;;;;;;7.47;4.15;;;7.20;99.90;;;;;;5009135;28;20151;-86
2022/11/18 07:31:48;;;;;;;8.23;5.40;;;7.20;99.90;;;;;;5012309;28;20034;-86
2022/11/18 07:34:13;;;;;;;16.10;6.22;;;7.10;99.90;;;;;;4979205;28;20060;-86
2022/11/18 07:36:39;;;;;;;11.02;5.95;;;7.20;99.90;;;;;;4988185;28;20037;-86
2022/11/18 07:39:06;;;;;;;8.93;5.65;;;7.20;99.90;;;;;;4995284;28;20091;-86
2022/11/18 07:41:32;;;;;;;10.02;5.63;;;7.20;99.90;;;;;;5022302;28;20060;-86
2022/11/18 07:44:00;;;;;;;11.70;6.93;;;7.20;99.90;;;;;;5047062;28;20494;-86
2022/11/18 07:46:30;;;;;;;9.18;5.53;;;7.20;99.90;;;;;;5013404;28;20036;-86
2022/11/18 07:48:58;;;;;;;10.60;5.95;;;7.20;99.90;;;;;;5031525;28;20076;-86
2022/11/18 07:51:37;;;;;;;10.60;6.10;;;7.20;99.90;;;;;;5014585;28;20032;-86
2022/11/18 07:54:16;;;;;;;11.23;5.88;;;7.20;99.90;;;;;;5018585;28;20434;-86
2022/11/18 07:56:56;;;;;;;13.77;6.87;;;7.20;99.90;;;;;;5035373;28;20041;-87
2022/11/18 07:59:54;;;;;;;10.68;6.25;;;7.20;99.90;;;;;;5017618;28;20052;-87
2022/11/18 08:02:19;;;;;;;11.60;6.63;;;7.20;99.90;;;;;;5030721;28;20520;-87
2022/11/18 08:04:51;;;;;;;19.85;7.85;;;7.20;99.90;;;;;;5019015;28;20037;-88
2022/11/18 08:07:17;;;;;;;10.48;6.05;;;7.20;99.90;;;;;;5015557;28;20060;-87
2022/11/18 08:10:16;;;;;;;10.13;5.80;;;7.20;99.90;;;;;;4998690;28;20402;-87
2022/11/18 08:12:45;;;;;;;7.22;4.50;;;7.20;99.90;;;;;;5031519;28;20473;-87
2022/11/18 08:15:12;;;;;;;8.55;5.22;;;7.30;99.90;;;;;;5035463;28;20496;-88
2022/11/18 08:17:38;;;;;;;44.78;5.90;;;7.30;99.90;;;;;;4999370;28;20041;-88
2022/11/18 08:20:45;;;;;;;51.38;5.68;;;7.30;99.90;;;;;;4999139;28;20038;-87
2022/11/18 08:23:15;;;;;;;58.35;5.22;;;7.30;99.90;;;;;;5031699;28;20033;-88
2022/11/18 08:25:44;;;;;;;6.70;3.28;;;7.30;99.90;;;;;;4999359;28;20586;-87
2022/11/18 08:28:19;;;;;;;7.22;2.83;;;7.30;99.90;;;;;;5016757;28;20375;-88
2022/11/18 08:30:56;;;;;;;42.30;3.88;;;7.30;99.90;;;;;;5032476;28;20479;-87
2022/11/18 08:33:39;;;;;;;5.90;1.88;;;7.40;99.90;;;;;;5001167;28;20029;-88
2022/11/18 08:36:29;;;;;;;5.38;1.73;;;7.40;99.90;;;;;;5031991;28;20398;-88
2022/11/18 08:38:58;;;;;;;33.88;3.05;;;7.40;99.90;;;;;;5016123;28;20079;-88
2022/11/18 08:41:59;;;;;;;69.20;4.65;;;7.40;99.90;;;;;;5014800;28;20091;-90
2022/11/18 08:45:16;;;;;;;4.47;2.25;;;7.40;99.90;;;;;;5032122;28;20050;-88
2022/11/18 08:48:53;;;;;;;3.15;2.40;;;7.40;99.90;;;;;;4952534;29;20137;-88
2022/11/18 08:51:22;;;;;;;6.75;3.40;;;7.40;99.90;;;;;;4946560;28;20155;-88
2022/11/18 08:54:12;;;;;;;4.55;3.35;;;7.40;99.90;;;;;;5019213;28;20442;-89
2022/11/18 08:57:19;;;;;;;7.05;3.42;;;7.40;99.90;;;;;;5029555;28;20033;-89
2022/11/18 09:04:02;;;;;;;6.32;2.92;;;7.40;99.90;;;;;;5010313;28;20498;-89
2022/11/18 09:07:51;;;;;;;5.68;2.88;;;7.40;99.90;;;;;;4938942;28;20053;-90
2022/11/18 09:11:26;;;;;;;5.43;3.78;;;7.40;99.90;;;;;;4858179;29;20058;-89
2022/11/18 09:13:57;;;;;;;7.22;3.28;;;7.40;99.90;;;;;;4891716;29;20048;-90
2022/11/18 09:16:44;;;;;;;28.35;4.03;;;7.40;99.90;;;;;;4972596;28;20050;-91
2022/11/18 09:19:14;;;;;;;8.15;3.60;;;7.40;99.90;;;;;;4958068;28;20030;-91
2022/11/18 09:21:43;;;;;;;15.70;3.30;;;7.50;99.90;;;;;;4974444;28;20050;-92
2022/11/18 09:24:11;;;;;;;8.18;3.22;;;7.40;99.90;;;;;;5002526;28;20125;-89
2022/11/18 09:26:38;;;;;;;11.35;3.67;;;7.50;99.90;;;;;;5014250;28;20037;-89
2022/11/18 09:29:07;;;;;;;29.90;4.43;;;7.50;99.90;;;;;;5014445;28;20323;-89
2022/11/18 09:31:33;;;;;;;10.77;3.35;;;7.50;99.90;;;;;;4997933;28;20030;-89
2022/11/18 09:34:00;;;;;;;3.55;2.67;;;7.50;99.90;;;;;;5015088;28;20033;-90
2022/11/18 09:36:26;;;;;;;2.58;2.30;;;7.60;99.90;;;;;;4998043;28;20034;-89
2022/11/18 09:38:53;;;;;;;3.80;2.55;;;7.60;99.90;;;;;;4998618;28;20038;-89
2022/11/18 09:41:29;;;;;;;6.90;2.58;;;7.60;99.90;;;;;;5014206;28;20041;-89
2022/11/18 09:44:20;;;;;;;4.70;2.63;;;7.70;99.90;;;;;;5014459;28;20033;-92
2022/11/18 09:47:09;;;;;;;4.35;2.40;;;7.70;99.90;;;;;;4997483;28;20056;-89
2022/11/18 09:49:38;;;;;;;3.35;2.35;;;7.70;99.90;;;;;;5014546;28;20044;-89
2022/11/18 09:52:37;;;;;;;14.77;3.25;;;7.80;99.90;;;;;;4997374;28;20540;-90
2022/11/18 09:55:39;;;;;;;30.15;5.65;;;7.80;99.90;;;;;;5013854;28;20037;-89
2022/11/18 09:58:09;;;;;;;3.72;2.47;;;7.90;99.90;;;;;;5013773;28;20034;-88
2022/11/18 10:00:35;;;;;;;9.32;3.33;;;8.00;99.90;;;;;;4982114;28;20029;-89
2022/11/18 10:03:06;;;;;;;40.38;4.50;;;8.00;99.90;;;;;;5013616;28;20489;-89
2022/11/18 10:05:54;;;;;;;3.70;2.53;;;8.00;99.90;;;;;;5013559;28;20112;-91
2022/11/18 10:08:54;;;;;;;3.38;2.50;;;8.10;99.90;;;;;;5013683;28;20037;-89
2022/11/18 10:11:24;;;;;;;4.15;2.30;;;8.10;99.90;;;;;;5013714;28;20168;-89
2022/11/18 10:14:11;;;;;;;12.80;2.38;;;8.10;99.90;;;;;;5013620;28;20371;-89
2022/11/18 10:16:51;;;;;;;9.88;2.45;;;8.20;99.90;;;;;;5008425;28;20525;-89
2022/11/18 10:19:40;;;;;;;4.25;1.67;;;8.10;99.90;;;;;;5013629;28;20060;-91
2022/11/18 10:22:25;;;;;;;20.45;2.33;;;8.10;99.90;;;;;;5013194;28;20034;-89
2022/11/18 10:24:54;;;;;;;14.20;2.08;;;8.10;99.90;;;;;;5013608;28;20029;-89
2022/11/18 10:27:21;;;;;;;13.48;2.13;;;8.10;99.90;;;;;;5013057;28;20037;-89
2022/11/18 10:29:54;;;;;;;2.60;1.60;;;8.10;99.90;;;;;;5013279;28;20029;-92
2022/11/18 10:32:20;;;;;;;62.20;4.00;;;8.10;99.90;;;;;;5013595;28;20030;-89
2022/11/18 10:34:55;;;;;;;17.45;2.50;;;8.10;99.90;;;;;;5012980;28;20029;-89
2022/11/18 10:37:31;;;;;;;2.37;1.50;;;8.10;99.90;;;;;;5013166;28;20490;-93
2022/11/18 10:40:05;;;;;;;1.65;1.15;;;8.10;99.90;;;;;;5013275;28;20351;-89
2022/11/18 10:45:33;;;;;;;8.88;1.40;;;8.00;99.90;;;;;;5011658;28;20037;-89
2022/11/18 10:48:00;;;;;;;9.10;1.48;;;8.00;99.90;;;;;;5009666;28;20041;-93
2022/11/18 10:50:35;;;;;;;2.08;1.20;;;8.00;99.90;;;;;;4995236;28;20080;-90
2022/11/18 10:53:01;;;;;;;1.37;1.00;;;8.00;99.90;;;;;;4992858;28;20029;-90
2022/11/18 10:55:31;;;;;;;5.15;0.93;;;8.10;99.90;;;;;;5008401;28;20363;-90
2022/11/18 10:58:08;;;;;;;0.90;0.80;;;8.10;99.90;;;;;;5010960;28;20482;-91
2022/11/18 11:00:43;;;;;;;0.75;0.75;;;8.10;99.90;;;;;;5010383;28;20051;-93
2022/11/18 11:03:32;;;;;;;3.08;1.02;;;8.00;99.90;;;;;;4993059;28;20120;-89
2022/11/18 11:06:29;;;;;;;1.73;0.70;;;8.00;99.90;;;;;;5009276;28;20061;-89
2022/11/18 11:09:27;;;;;;;1.00;0.90;;;7.90;99.90;;;;;;4994293;28;20029;-91
2022/11/18 11:12:15;;;;;;;0.60;0.60;;;7.90;99.90;;;;;;4992333;28;20379;-91
2022/11/18 11:14:52;;;;;;;0.82;0.68;;;7.90;99.90;;;;;;5010724;28;20037;-90
2022/11/18 11:20:42;;;;;;;7.20;1.17;;;7.90;99.90;;;;;;4992290;28;20498;-90
2022/11/18 11:23:12;;;;;;;0.70;0.70;;;7.90;99.90;;;;;;4994259;28;20021;-90
2022/11/18 11:26:12;;;;;;;1.27;0.68;;;7.90;99.90;;;;;;5009966;28;20030;-89
2022/11/18 11:28:55;;;;;;;0.60;0.50;;;7.90;99.90;;;;;;4997323;28;20022;-89
2022/11/18 11:31:33;;;;;;;1.45;0.70;;;7.90;99.90;;;;;;4997770;28;20022;-88
2022/11/18 11:34:07;;;;;;;1.05;0.80;;;7.90;99.90;;;;;;4997762;28;20029;-88
2022/11/18 11:37:11;;;;;;;0.40;0.40;;;8.00;99.90;;;;;;4997722;28;20553;-88
2022/11/18 11:39:57;;;;;;;0.60;0.50;;;8.00;99.90;;;;;;4997616;28;20064;-89
2022/11/18 11:42:29;;;;;;;0.55;0.50;;;8.00;99.90;;;;;;4997587;28;20441;-89
2022/11/18 11:45:20;;;;;;;0.60;0.60;;;8.10;99.90;;;;;;4997647;28;20037;-88
2022/11/18 11:48:04;;;;;;;0.60;0.60;;;8.10;99.90;;;;;;4997638;28;20182;-92
2022/11/18 11:50:57;;;;;;;0.95;0.60;;;8.10;99.90;;;;;;4997635;28;20156;-92
2022/11/18 11:54:20;;;;;;;5.40;0.70;;;8.20;99.90;;;;;;4999936;28;20056;-91
2022/11/18 11:57:18;;;;;;;1.88;0.50;;;8.20;99.90;;;;;;5030352;28;20025;-94
2022/11/18 11:59:53;;;;;;;5.55;0.85;;;8.30;99.90;;;;;;5036386;28;20127;-88
2022/11/18 12:02:19;;;;;;;;;;;8.30;99.90;;;;;;5030351;28;20029;-88
2022/11/18 12:04:54;;;;;;;;;;;8.30;99.90;;;;;;5034915;28;20284;-90
2022/11/18 12:08:21;;;;;;;3.92;1.50;;;8.40;99.90;;;;;;5028188;28;19913;-90
2022/11/18 12:11:06;;;;;;;2.05;0.88;;;8.40;99.90;;;;;;4962280;28;20027;-90
2022/11/18 12:14:57;;;;;;;;;;;;;;;;;;;;;
2022/11/18 12:18:41;;;;;;;3.03;1.48;;;8.50;99.90;;;;;;4936981;28;20126;-90
2022/11/18 12:32:55;;;;;;;5.13;2.53;;;8.50;99.90;;;;;;5035006;23;20112;-81
2022/11/18 12:35:26;;;;;;;7.38;2.85;;;8.50;99.90;;;;;;5078025;28;20020;-80
2022/11/18 12:37:51;;;;;;;13.20;2.65;;;8.50;99.90;;;;;;5058926;28;20561;-82
2022/11/18 12:40:32;;;;;;;11.18;3.30;;;8.50;99.90;;;;;;5071872;28;20029;-79
2022/11/18 12:43:45;;;;;;;13.40;3.85;;;8.50;99.90;;;;;;5075521;28;20113;-81
2022/11/18 12:45:50;;;;;;;44.97;5.57;;;8.50;99.90;;;;;;5059889;28;20076;-82
2022/11/18 12:48:33;;;;;;;40.50;4.75;;;8.50;99.90;;;;;;5057834;28;20036;-79
2022/11/18 12:51:19;;;;;;;14.50;4.40;;;8.60;99.90;;;;;;5086180;28;20660;-79
2022/11/18 12:53:46;;;;;;;;;;;8.60;99.90;;;;;;5078248;28;20041;-80
2022/11/18 12:56:28;;;;;;;18.63;5.13;;;8.60;99.90;;;;;;5061311;28;19947;-79
2022/11/18 12:58:56;;;;;;;25.63;5.82;;;8.60;99.90;;;;;;5071222;28;20024;-80
2022/11/18 13:01:24;;;;;;;7.57;4.40;;;8.60;99.90;;;;;;5063521;28;20036;-80
2022/11/18 13:03:51;;;;;;;14.15;4.03;;;8.60;99.90;;;;;;5067417;28;20387;-81
2022/11/18 13:06:23;;;;;;;14.77;3.20;;;8.50;99.90;;;;;;5035803;28;20041;-83
2022/11/18 13:08:55;;;;;;;5.03;2.35;;;8.40;99.90;;;;;;5052160;28;20028;-81
2022/11/18 13:19:55;;;;;;;2.60;1.40;;;8.10;99.90;;;;;;5058402;28;20047;-80
2022/11/18 13:25:24;;;;;;;3.63;1.85;;;7.90;99.90;;;;;;5081839;28;20035;-80
2022/11/18 13:28:08;;;;;;;4.85;2.10;;;7.90;99.90;;;;;;5068018;28;20454;-81
2022/11/18 13:30:43;;;;;;;2.40;1.95;;;7.80;99.90;;;;;;5073384;28;20023;-80
2022/11/18 13:33:10;;;;;;;5.13;2.00;;;7.70;99.90;;;;;;5051795;28;20081;-80
2022/11/18 13:35:39;;;;;;;2.58;2.25;;;7.70;99.90;;;;;;5067841;28;20028;-80
2022/11/18 13:38:22;;;;;;;4.75;2.65;;;7.70;99.90;;;;;;5039475;28;20039;-79
2022/11/18 13:41:12;;;;;;;4.32;3.03;;;7.70;99.90;;;;;;5066058;28;20035;-79
2022/11/18 13:43:38;;;;;;;3.97;2.95;;;7.70;99.90;;;;;;5076156;28;20043;-80
2022/11/18 13:46:12;;;;;;;4.05;3.42;;;7.60;99.90;;;;;;5057762;28;20039;-79
2022/11/18 13:48:45;;;;;;;3.90;3.05;;;7.60;99.90;;;;;;5073212;28;20166;-79
2022/11/18 13:51:11;;;;;;;3.05;2.75;;;7.50;99.90;;;;;;5056655;28;20032;-79
2022/11/18 13:53:39;;;;;;;4.82;2.92;;;7.50;99.90;;;;;;5055390;28;20032;-79
2022/11/18 13:56:16;;;;;;;3.90;3.03;;;7.50;99.90;;;;;;5056061;28;20157;-79
2022/11/18 13:58:43;;;;;;;3.65;3.13;;;7.50;99.90;;;;;;5087384;28;20123;-79
2022/11/18 14:01:14;;;;;;;5.22;2.92;;;7.40;99.90;;;;;;5042468;28;20032;-83
2022/11/18 14:03:49;;;;;;;3.28;2.80;;;7.40;99.90;;;;;;5037226;28;20029;-79
2022/11/18 14:06:31;;;;;;;4.70;2.67;;;7.40;99.90;;;;;;5059336;28;20099;-80
2022/11/18 14:09:18;;;;;;;3.65;2.83;;;7.30;99.90;;;;;;5062866;28;20031;-81
2022/11/18 14:12:13;;;;;;;4.88;3.10;;;7.20;99.90;;;;;;5059088;28;20024;-81
2022/11/18 14:14:41;;;;;;;3.78;3.00;;;7.10;99.90;;;;;;5058554;28;20043;-80
2022/11/18 14:17:23;;;;;;;4.28;3.10;;;7.00;99.90;;;;;;5067167;28;20047;-80
2022/11/18 14:19:55;;;;;;;5.63;3.00;;;7.00;99.90;;;;;;5063067;28;20479;-79
2022/11/18 14:22:32;;;;;;;3.00;2.70;;;6.90;99.90;;;;;;5067641;28;20100;-79